sensor_id;sensor_type;location;lat;lon;timestamp;P1;durP1;ratioP1;P2;durP2;ratioP2
5363;SDS011;2705;41.410;2.160;2023-01-26T00:00:39;9.43;;;6.40;;
5363;SDS011;2705;41.410;2.160;2023-01-26T00:03:09;17.30;;;9.37;;
5363;SDS011;2705;41.410;2.160;2023-01-26T00:05:38;14.10;;;8.60;;
5363;SDS011;2705;41.410;2.160;2023-01-26T00:08:07;13.63;;;8.30;;
5363;SDS011;2705;41.410;2.160;2023-01-26T00:10:37;13.03;;;8.23;;
5363;SDS011;2705;41.410;2.160;2023-01-26T00:13:07;7.10;;;4.90;;
5363;SDS011;2705;41.410;2.160;2023-01-26T00:15:38;14.03;;;8.67;;
5363;SDS011;2705;41.410;2.160;2023-01-26T00:18:07;12.67;;;7.67;;
5363;SDS011;2705;41.410;2.160;2023-01-26T00:20:37;12.97;;;7.53;;
5363;SDS011;2705;41.410;2.160;2023-01-26T00:23:06;12.43;;;8.30;;
5363;SDS011;2705;41.410;2.160;2023-01-26T00:25:36;14.30;;;8.40;;
5363;SDS011;2705;41.410;2.160;2023-01-26T00:28:07;13.27;;;8.33;;
5363;SDS011;2705;41.410;2.160;2023-01-26T00:30:37;14.00;;;8.87;;
5363;SDS011;2705;41.410;2.160;2023-01-26T00:33:07;12.57;;;7.67;;
5363;SDS011;2705;41.410;2.160;2023-01-26T00:35:36;12.73;;;7.53;;
5363;SDS011;2705;41.410;2.160;2023-01-26T00:38:10;12.93;;;6.73;;
5363;SDS011;2705;41.410;2.160;2023-01-26T00:40:40;14.40;;;8.50;;
5363;SDS011;2705;41.410;2.160;2023-01-26T00:43:09;12.97;;;7.80;;
5363;SDS011;2705;41.410;2.160;2023-01-26T00:45:40;12.90;;;7.20;;
5363;SDS011;2705;41.410;2.160;2023-01-26T00:48:09;13.33;;;8.10;;
5363;SDS011;2705;41.410;2.160;2023-01-26T00:50:38;10.97;;;7.50;;
5363;SDS011;2705;41.410;2.160;2023-01-26T00:53:08;12.63;;;8.27;;
5363;SDS011;2705;41.410;2.160;2023-01-26T00:55:37;17.50;;;8.97;;
5363;SDS011;2705;41.410;2.160;2023-01-26T00:58:07;14.00;;;8.17;;
5363;SDS011;2705;41.410;2.160;2023-01-26T01:00:37;13.20;;;8.60;;
5363;SDS011;2705;41.410;2.160;2023-01-26T01:03:08;14.77;;;8.20;;
5363;SDS011;2705;41.410;2.160;2023-01-26T01:05:37;9.77;;;6.70;;
5363;SDS011;2705;41.410;2.160;2023-01-26T01:08:07;15.63;;;9.03;;
5363;SDS011;2705;41.410;2.160;2023-01-26T01:10:36;11.20;;;6.70;;
5363;SDS011;2705;41.410;2.160;2023-01-26T01:13:05;12.73;;;7.63;;
5363;SDS011;2705;41.410;2.160;2023-01-26T01:15:34;13.97;;;8.30;;
5363;SDS011;2705;41.410;2.160;2023-01-26T01:18:06;11.97;;;7.87;;
5363;SDS011;2705;41.410;2.160;2023-01-26T01:20:36;13.53;;;8.60;;
5363;SDS011;2705;41.410;2.160;2023-01-26T01:23:08;14.73;;;8.07;;
5363;SDS011;2705;41.410;2.160;2023-01-26T01:25:38;12.00;;;8.23;;
5363;SDS011;2705;41.410;2.160;2023-01-26T01:28:07;13.20;;;8.67;;
5363;SDS011;2705;41.410;2.160;2023-01-26T01:30:36;14.40;;;7.90;;
5363;SDS011;2705;41.410;2.160;2023-01-26T01:33:06;12.00;;;8.07;;
5363;SDS011;2705;41.410;2.160;2023-01-26T01:35:37;11.13;;;7.27;;
5363;SDS011;2705;41.410;2.160;2023-01-26T01:38:06;12.77;;;7.83;;
5363;SDS011;2705;41.410;2.160;2023-01-26T01:40:38;12.43;;;8.20;;
5363;SDS011;2705;41.410;2.160;2023-01-26T01:43:10;14.20;;;7.63;;
5363;SDS011;2705;41.410;2.160;2023-01-26T01:45:44;13.43;;;7.90;;
5363;SDS011;2705;41.410;2.160;2023-01-26T01:48:16;10.33;;;6.67;;
5363;SDS011;2705;41.410;2.160;2023-01-26T01:50:47;11.40;;;7.50;;
5363;SDS011;2705;41.410;2.160;2023-01-26T01:53:19;10.33;;;7.23;;
5363;SDS011;2705;41.410;2.160;2023-01-26T01:55:52;10.50;;;6.30;;
5363;SDS011;2705;41.410;2.160;2023-01-26T01:58:22;12.57;;;7.40;;
5363;SDS011;2705;41.410;2.160;2023-01-26T02:00:51;13.07;;;7.70;;
5363;SDS011;2705;41.410;2.160;2023-01-26T02:03:45;12.90;;;7.70;;
5363;SDS011;2705;41.410;2.160;2023-01-26T02:06:17;12.43;;;6.97;;
5363;SDS011;2705;41.410;2.160;2023-01-26T02:08:49;10.70;;;6.73;;
5363;SDS011;2705;41.410;2.160;2023-01-26T02:11:19;11.57;;;6.87;;
5363;SDS011;2705;41.410;2.160;2023-01-26T02:13:52;12.13;;;7.70;;
5363;SDS011;2705;41.410;2.160;2023-01-26T02:16:22;11.60;;;7.13;;
5363;SDS011;2705;41.410;2.160;2023-01-26T02:18:51;15.33;;;7.60;;
5363;SDS011;2705;41.410;2.160;2023-01-26T02:21:23;13.37;;;7.03;;
5363;SDS011;2705;41.410;2.160;2023-01-26T02:24:02;13.30;;;8.10;;
5363;SDS011;2705;41.410;2.160;2023-01-26T02:26:37;14.57;;;7.10;;
5363;SDS011;2705;41.410;2.160;2023-01-26T02:29:07;12.80;;;8.27;;
5363;SDS011;2705;41.410;2.160;2023-01-26T02:31:41;8.97;;;5.30;;
5363;SDS011;2705;41.410;2.160;2023-01-26T02:34:11;10.03;;;6.10;;
5363;SDS011;2705;41.410;2.160;2023-01-26T02:36:41;12.40;;;7.73;;
5363;SDS011;2705;41.410;2.160;2023-01-26T02:39:17;13.70;;;8.60;;
5363;SDS011;2705;41.410;2.160;2023-01-26T02:41:50;15.20;;;8.43;;
5363;SDS011;2705;41.410;2.160;2023-01-26T02:44:38;12.87;;;8.30;;
5363;SDS011;2705;41.410;2.160;2023-01-26T02:47:10;14.67;;;8.40;;
5363;SDS011;2705;41.410;2.160;2023-01-26T02:49:40;10.83;;;7.17;;
5363;SDS011;2705;41.410;2.160;2023-01-26T02:52:19;21.70;;;9.00;;
5363;SDS011;2705;41.410;2.160;2023-01-26T02:54:56;12.50;;;8.13;;
5363;SDS011;2705;41.410;2.160;2023-01-26T02:57:45;12.60;;;6.83;;
5363;SDS011;2705;41.410;2.160;2023-01-26T03:00:16;12.07;;;7.87;;
5363;SDS011;2705;41.410;2.160;2023-01-26T03:02:47;15.40;;;9.00;;
5363;SDS011;2705;41.410;2.160;2023-01-26T03:05:17;13.03;;;7.87;;
5363;SDS011;2705;41.410;2.160;2023-01-26T03:07:46;10.80;;;6.10;;
5363;SDS011;2705;41.410;2.160;2023-01-26T03:10:18;13.70;;;8.97;;
5363;SDS011;2705;41.410;2.160;2023-01-26T03:12:52;11.47;;;6.47;;
5363;SDS011;2705;41.410;2.160;2023-01-26T03:15:21;12.90;;;8.97;;
5363;SDS011;2705;41.410;2.160;2023-01-26T03:18:18;14.13;;;7.27;;
5363;SDS011;2705;41.410;2.160;2023-01-26T03:21:08;12.67;;;8.23;;
5363;SDS011;2705;41.410;2.160;2023-01-26T03:23:55;13.03;;;9.13;;
5363;SDS011;2705;41.410;2.160;2023-01-26T03:26:43;11.47;;;7.67;;
5363;SDS011;2705;41.410;2.160;2023-01-26T03:29:32;8.40;;;5.47;;
5363;SDS011;2705;41.410;2.160;2023-01-26T03:32:02;12.67;;;7.60;;
5363;SDS011;2705;41.410;2.160;2023-01-26T03:34:32;12.37;;;7.73;;
5363;SDS011;2705;41.410;2.160;2023-01-26T03:37:03;11.20;;;7.53;;
5363;SDS011;2705;41.410;2.160;2023-01-26T03:39:44;12.60;;;7.80;;
5363;SDS011;2705;41.410;2.160;2023-01-26T03:42:32;13.20;;;8.27;;
5363;SDS011;2705;41.410;2.160;2023-01-26T03:45:21;13.30;;;8.40;;
5363;SDS011;2705;41.410;2.160;2023-01-26T03:48:08;11.53;;;7.53;;
5363;SDS011;2705;41.410;2.160;2023-01-26T03:50:56;10.63;;;7.23;;
5363;SDS011;2705;41.410;2.160;2023-01-26T03:53:43;11.43;;;7.40;;
5363;SDS011;2705;41.410;2.160;2023-01-26T03:56:31;11.57;;;7.47;;
5363;SDS011;2705;41.410;2.160;2023-01-26T03:59:06;13.53;;;8.07;;
5363;SDS011;2705;41.410;2.160;2023-01-26T04:01:40;10.73;;;7.20;;
5363;SDS011;2705;41.410;2.160;2023-01-26T04:04:23;10.70;;;7.40;;
5363;SDS011;2705;41.410;2.160;2023-01-26T04:07:10;11.30;;;7.20;;
5363;SDS011;2705;41.410;2.160;2023-01-26T04:09:57;11.50;;;7.67;;
5363;SDS011;2705;41.410;2.160;2023-01-26T04:12:28;9.30;;;6.70;;
5363;SDS011;2705;41.410;2.160;2023-01-26T04:15:23;11.30;;;7.33;;
5363;SDS011;2705;41.410;2.160;2023-01-26T04:18:11;10.33;;;7.37;;
5363;SDS011;2705;41.410;2.160;2023-01-26T04:21:00;11.30;;;4.87;;
5363;SDS011;2705;41.410;2.160;2023-01-26T04:23:47;11.57;;;5.90;;
5363;SDS011;2705;41.410;2.160;2023-01-26T04:26:16;11.13;;;5.97;;
5363;SDS011;2705;41.410;2.160;2023-01-26T04:28:46;5.37;;;4.10;;
5363;SDS011;2705;41.410;2.160;2023-01-26T04:31:15;13.27;;;6.13;;
5363;SDS011;2705;41.410;2.160;2023-01-26T04:33:49;9.87;;;6.73;;
5363;SDS011;2705;41.410;2.160;2023-01-26T04:36:20;9.60;;;5.90;;
5363;SDS011;2705;41.410;2.160;2023-01-26T04:38:50;8.43;;;5.10;;
5363;SDS011;2705;41.410;2.160;2023-01-26T04:41:21;8.53;;;6.30;;
5363;SDS011;2705;41.410;2.160;2023-01-26T04:43:57;11.33;;;6.47;;
5363;SDS011;2705;41.410;2.160;2023-01-26T04:46:27;9.70;;;6.00;;
5363;SDS011;2705;41.410;2.160;2023-01-26T04:48:58;8.30;;;6.57;;
5363;SDS011;2705;41.410;2.160;2023-01-26T04:51:28;9.50;;;6.03;;
5363;SDS011;2705;41.410;2.160;2023-01-26T04:53:57;10.23;;;5.90;;
5363;SDS011;2705;41.410;2.160;2023-01-26T04:56:29;8.80;;;5.83;;
5363;SDS011;2705;41.410;2.160;2023-01-26T04:59:00;10.87;;;6.60;;
5363;SDS011;2705;41.410;2.160;2023-01-26T05:01:31;9.73;;;6.37;;
5363;SDS011;2705;41.410;2.160;2023-01-26T05:04:05;10.50;;;7.07;;
5363;SDS011;2705;41.410;2.160;2023-01-26T05:06:38;8.23;;;6.30;;
5363;SDS011;2705;41.410;2.160;2023-01-26T05:09:09;10.10;;;6.30;;
5363;SDS011;2705;41.410;2.160;2023-01-26T05:11:41;9.70;;;6.20;;
5363;SDS011;2705;41.410;2.160;2023-01-26T05:14:36;11.20;;;6.77;;
5363;SDS011;2705;41.410;2.160;2023-01-26T05:17:19;11.37;;;6.97;;
5363;SDS011;2705;41.410;2.160;2023-01-26T05:20:09;10.53;;;5.90;;
5363;SDS011;2705;41.410;2.160;2023-01-26T05:22:55;12.00;;;7.20;;
5363;SDS011;2705;41.410;2.160;2023-01-26T05:25:28;10.17;;;6.80;;
5363;SDS011;2705;41.410;2.160;2023-01-26T05:28:02;10.67;;;5.83;;
5363;SDS011;2705;41.410;2.160;2023-01-26T05:30:31;9.97;;;6.30;;
5363;SDS011;2705;41.410;2.160;2023-01-26T05:33:02;10.73;;;6.40;;
5363;SDS011;2705;41.410;2.160;2023-01-26T05:35:34;9.97;;;6.37;;
5363;SDS011;2705;41.410;2.160;2023-01-26T05:38:06;10.13;;;6.80;;
5363;SDS011;2705;41.410;2.160;2023-01-26T05:40:36;11.10;;;6.53;;
5363;SDS011;2705;41.410;2.160;2023-01-26T05:43:06;14.77;;;7.70;;
5363;SDS011;2705;41.410;2.160;2023-01-26T05:45:45;10.23;;;6.90;;
5363;SDS011;2705;41.410;2.160;2023-01-26T05:48:16;11.20;;;7.10;;
5363;SDS011;2705;41.410;2.160;2023-01-26T05:50:50;9.40;;;6.00;;
5363;SDS011;2705;41.410;2.160;2023-01-26T05:53:20;11.50;;;7.30;;
5363;SDS011;2705;41.410;2.160;2023-01-26T05:55:50;11.60;;;6.43;;
5363;SDS011;2705;41.410;2.160;2023-01-26T05:58:22;11.90;;;7.27;;
5363;SDS011;2705;41.410;2.160;2023-01-26T06:00:56;11.77;;;6.90;;
5363;SDS011;2705;41.410;2.160;2023-01-26T06:03:30;11.90;;;6.80;;
5363;SDS011;2705;41.410;2.160;2023-01-26T06:06:00;13.33;;;7.17;;
5363;SDS011;2705;41.410;2.160;2023-01-26T06:08:39;12.07;;;7.87;;
5363;SDS011;2705;41.410;2.160;2023-01-26T06:11:27;10.57;;;7.07;;
5363;SDS011;2705;41.410;2.160;2023-01-26T06:14:28;11.20;;;6.93;;
5363;SDS011;2705;41.410;2.160;2023-01-26T06:16:58;9.13;;;6.40;;
5363;SDS011;2705;41.410;2.160;2023-01-26T06:19:28;4.70;;;3.13;;
5363;SDS011;2705;41.410;2.160;2023-01-26T06:22:00;7.87;;;6.30;;
5363;SDS011;2705;41.410;2.160;2023-01-26T06:24:30;10.10;;;7.13;;
5363;SDS011;2705;41.410;2.160;2023-01-26T06:27:00;9.80;;;6.70;;
5363;SDS011;2705;41.410;2.160;2023-01-26T06:29:33;19.37;;;6.73;;
5363;SDS011;2705;41.410;2.160;2023-01-26T06:32:02;11.27;;;7.87;;
5363;SDS011;2705;41.410;2.160;2023-01-26T06:34:32;7.97;;;6.00;;
5363;SDS011;2705;41.410;2.160;2023-01-26T06:37:03;9.40;;;7.10;;
5363;SDS011;2705;41.410;2.160;2023-01-26T06:39:36;12.47;;;7.27;;
5363;SDS011;2705;41.410;2.160;2023-01-26T06:42:07;10.00;;;7.03;;
5363;SDS011;2705;41.410;2.160;2023-01-26T06:44:37;10.03;;;7.07;;
5363;SDS011;2705;41.410;2.160;2023-01-26T06:47:06;9.27;;;6.80;;
5363;SDS011;2705;41.410;2.160;2023-01-26T06:49:36;10.93;;;6.23;;
5363;SDS011;2705;41.410;2.160;2023-01-26T06:52:20;10.83;;;7.27;;
5363;SDS011;2705;41.410;2.160;2023-01-26T06:54:51;9.07;;;6.90;;
5363;SDS011;2705;41.410;2.160;2023-01-26T06:57:32;13.20;;;8.13;;
5363;SDS011;2705;41.410;2.160;2023-01-26T07:00:27;11.70;;;7.50;;
5363;SDS011;2705;41.410;2.160;2023-01-26T07:03:13;10.87;;;7.20;;
5363;SDS011;2705;41.410;2.160;2023-01-26T07:05:43;11.90;;;7.63;;
5363;SDS011;2705;41.410;2.160;2023-01-26T07:08:13;13.67;;;6.83;;
5363;SDS011;2705;41.410;2.160;2023-01-26T07:10:43;14.57;;;9.47;;
5363;SDS011;2705;41.410;2.160;2023-01-26T07:13:12;14.37;;;8.50;;
5363;SDS011;2705;41.410;2.160;2023-01-26T07:15:41;10.70;;;7.60;;
5363;SDS011;2705;41.410;2.160;2023-01-26T07:18:10;14.60;;;7.60;;
5363;SDS011;2705;41.410;2.160;2023-01-26T07:20:40;14.23;;;8.20;;
5363;SDS011;2705;41.410;2.160;2023-01-26T07:23:09;11.50;;;7.40;;
5363;SDS011;2705;41.410;2.160;2023-01-26T07:25:43;11.07;;;7.40;;
5363;SDS011;2705;41.410;2.160;2023-01-26T07:28:12;11.90;;;7.70;;
5363;SDS011;2705;41.410;2.160;2023-01-26T07:30:41;14.07;;;8.10;;
5363;SDS011;2705;41.410;2.160;2023-01-26T07:33:11;12.33;;;7.43;;
5363;SDS011;2705;41.410;2.160;2023-01-26T07:35:40;11.60;;;6.80;;
5363;SDS011;2705;41.410;2.160;2023-01-26T07:38:10;14.63;;;7.73;;
5363;SDS011;2705;41.410;2.160;2023-01-26T07:40:39;15.20;;;8.30;;
5363;SDS011;2705;41.410;2.160;2023-01-26T07:43:09;14.90;;;7.50;;
5363;SDS011;2705;41.410;2.160;2023-01-26T07:45:49;14.17;;;8.30;;
5363;SDS011;2705;41.410;2.160;2023-01-26T07:48:19;16.40;;;8.83;;
5363;SDS011;2705;41.410;2.160;2023-01-26T07:50:49;9.70;;;6.97;;
5363;SDS011;2705;41.410;2.160;2023-01-26T07:53:18;27.70;;;11.40;;
5363;SDS011;2705;41.410;2.160;2023-01-26T07:55:49;14.77;;;8.23;;
5363;SDS011;2705;41.410;2.160;2023-01-26T07:58:19;14.83;;;8.33;;
5363;SDS011;2705;41.410;2.160;2023-01-26T08:00:53;15.13;;;8.60;;
5363;SDS011;2705;41.410;2.160;2023-01-26T08:03:23;13.83;;;7.93;;
5363;SDS011;2705;41.410;2.160;2023-01-26T08:05:53;26.00;;;11.03;;
5363;SDS011;2705;41.410;2.160;2023-01-26T08:08:22;19.37;;;10.63;;
5363;SDS011;2705;41.410;2.160;2023-01-26T08:10:54;10.60;;;7.83;;
5363;SDS011;2705;41.410;2.160;2023-01-26T08:13:25;14.67;;;8.23;;
5363;SDS011;2705;41.410;2.160;2023-01-26T08:16:02;12.17;;;7.60;;
5363;SDS011;2705;41.410;2.160;2023-01-26T08:18:32;10.63;;;7.60;;
5363;SDS011;2705;41.410;2.160;2023-01-26T08:21:01;18.00;;;7.70;;
5363;SDS011;2705;41.410;2.160;2023-01-26T08:23:30;16.30;;;8.80;;
5363;SDS011;2705;41.410;2.160;2023-01-26T08:26:00;10.93;;;7.10;;
5363;SDS011;2705;41.410;2.160;2023-01-26T08:28:31;16.37;;;9.63;;
5363;SDS011;2705;41.410;2.160;2023-01-26T08:31:03;15.10;;;8.10;;
5363;SDS011;2705;41.410;2.160;2023-01-26T08:33:33;12.67;;;8.20;;
5363;SDS011;2705;41.410;2.160;2023-01-26T08:36:03;17.30;;;8.07;;
5363;SDS011;2705;41.410;2.160;2023-01-26T08:38:33;16.00;;;8.30;;
5363;SDS011;2705;41.410;2.160;2023-01-26T08:41:03;11.43;;;7.37;;
5363;SDS011;2705;41.410;2.160;2023-01-26T08:43:34;16.63;;;7.73;;
5363;SDS011;2705;41.410;2.160;2023-01-26T08:46:04;12.40;;;7.53;;
5363;SDS011;2705;41.410;2.160;2023-01-26T08:48:33;11.90;;;8.10;;
5363;SDS011;2705;41.410;2.160;2023-01-26T08:51:04;17.47;;;8.63;;
5363;SDS011;2705;41.410;2.160;2023-01-26T08:53:34;10.80;;;7.83;;
5363;SDS011;2705;41.410;2.160;2023-01-26T08:56:04;11.30;;;6.50;;
5363;SDS011;2705;41.410;2.160;2023-01-26T08:58:36;10.90;;;6.67;;
5363;SDS011;2705;41.410;2.160;2023-01-26T09:01:06;13.70;;;6.43;;
5363;SDS011;2705;41.410;2.160;2023-01-26T09:03:36;8.93;;;6.20;;
5363;SDS011;2705;41.410;2.160;2023-01-26T09:06:06;10.60;;;6.33;;
5363;SDS011;2705;41.410;2.160;2023-01-26T09:08:35;8.70;;;6.23;;
5363;SDS011;2705;41.410;2.160;2023-01-26T09:11:05;11.53;;;5.93;;
5363;SDS011;2705;41.410;2.160;2023-01-26T09:13:36;9.20;;;6.27;;
5363;SDS011;2705;41.410;2.160;2023-01-26T09:16:06;9.53;;;6.03;;
5363;SDS011;2705;41.410;2.160;2023-01-26T09:18:36;15.40;;;6.07;;
5363;SDS011;2705;41.410;2.160;2023-01-26T09:21:06;12.87;;;8.20;;
5363;SDS011;2705;41.410;2.160;2023-01-26T09:23:35;15.80;;;9.00;;
5363;SDS011;2705;41.410;2.160;2023-01-26T09:26:05;8.60;;;5.60;;
5363;SDS011;2705;41.410;2.160;2023-01-26T09:28:36;7.57;;;5.40;;
5363;SDS011;2705;41.410;2.160;2023-01-26T09:31:07;7.80;;;5.60;;
5363;SDS011;2705;41.410;2.160;2023-01-26T09:33:37;8.40;;;5.77;;
5363;SDS011;2705;41.410;2.160;2023-01-26T09:36:07;14.43;;;7.53;;
5363;SDS011;2705;41.410;2.160;2023-01-26T09:38:36;6.17;;;4.80;;
5363;SDS011;2705;41.410;2.160;2023-01-26T09:41:06;15.77;;;6.57;;
5363;SDS011;2705;41.410;2.160;2023-01-26T09:43:43;12.10;;;5.73;;
5363;SDS011;2705;41.410;2.160;2023-01-26T09:46:17;14.00;;;7.90;;
5363;SDS011;2705;41.410;2.160;2023-01-26T09:48:53;7.97;;;5.93;;
5363;SDS011;2705;41.410;2.160;2023-01-26T09:51:27;13.17;;;7.40;;
5363;SDS011;2705;41.410;2.160;2023-01-26T09:54:00;6.60;;;5.20;;
5363;SDS011;2705;41.410;2.160;2023-01-26T09:56:30;8.07;;;5.40;;
5363;SDS011;2705;41.410;2.160;2023-01-26T09:59:20;7.43;;;4.27;;
5363;SDS011;2705;41.410;2.160;2023-01-26T10:01:52;6.00;;;4.77;;
5363;SDS011;2705;41.410;2.160;2023-01-26T10:04:26;19.73;;;10.17;;
5363;SDS011;2705;41.410;2.160;2023-01-26T10:07:00;5.73;;;4.90;;
5363;SDS011;2705;41.410;2.160;2023-01-26T10:09:46;11.17;;;6.20;;
5363;SDS011;2705;41.410;2.160;2023-01-26T10:12:17;8.20;;;4.93;;
5363;SDS011;2705;41.410;2.160;2023-01-26T10:14:50;7.10;;;5.30;;
5363;SDS011;2705;41.410;2.160;2023-01-26T10:17:24;11.13;;;7.00;;
5363;SDS011;2705;41.410;2.160;2023-01-26T10:19:58;22.67;;;6.43;;
5363;SDS011;2705;41.410;2.160;2023-01-26T10:22:30;12.60;;;5.60;;
5363;SDS011;2705;41.410;2.160;2023-01-26T10:25:02;7.73;;;5.07;;
5363;SDS011;2705;41.410;2.160;2023-01-26T10:27:39;7.93;;;5.33;;
5363;SDS011;2705;41.410;2.160;2023-01-26T10:32:44;8.57;;;4.90;;
5363;SDS011;2705;41.410;2.160;2023-01-26T10:35:14;5.00;;;3.90;;
5363;SDS011;2705;41.410;2.160;2023-01-26T10:37:45;7.47;;;4.93;;
5363;SDS011;2705;41.410;2.160;2023-01-26T10:40:15;7.57;;;5.80;;
5363;SDS011;2705;41.410;2.160;2023-01-26T10:42:52;5.07;;;3.93;;
5363;SDS011;2705;41.410;2.160;2023-01-26T10:45:23;6.70;;;4.27;;
5363;SDS011;2705;41.410;2.160;2023-01-26T10:48:08;6.53;;;4.27;;
5363;SDS011;2705;41.410;2.160;2023-01-26T10:50:42;13.77;;;4.57;;
5363;SDS011;2705;41.410;2.160;2023-01-26T10:53:15;8.97;;;5.90;;
5363;SDS011;2705;41.410;2.160;2023-01-26T10:55:56;9.10;;;5.00;;
5363;SDS011;2705;41.410;2.160;2023-01-26T10:58:43;5.13;;;4.00;;
5363;SDS011;2705;41.410;2.160;2023-01-26T11:01:13;6.40;;;4.80;;
5363;SDS011;2705;41.410;2.160;2023-01-26T11:03:57;9.73;;;4.13;;
5363;SDS011;2705;41.410;2.160;2023-01-26T11:06:28;5.93;;;4.43;;
5363;SDS011;2705;41.410;2.160;2023-01-26T11:09:07;9.73;;;4.53;;
5363;SDS011;2705;41.410;2.160;2023-01-26T11:11:37;5.30;;;3.63;;
5363;SDS011;2705;41.410;2.160;2023-01-26T11:14:10;7.70;;;5.00;;
5363;SDS011;2705;41.410;2.160;2023-01-26T11:16:40;11.50;;;4.50;;
5363;SDS011;2705;41.410;2.160;2023-01-26T11:19:15;4.33;;;3.57;;
5363;SDS011;2705;41.410;2.160;2023-01-26T11:21:49;7.27;;;4.40;;
5363;SDS011;2705;41.410;2.160;2023-01-26T11:24:23;8.90;;;5.80;;
5363;SDS011;2705;41.410;2.160;2023-01-26T11:29:45;5.63;;;4.10;;
5363;SDS011;2705;41.410;2.160;2023-01-26T11:32:16;5.77;;;3.87;;
5363;SDS011;2705;41.410;2.160;2023-01-26T11:34:53;9.10;;;3.87;;
5363;SDS011;2705;41.410;2.160;2023-01-26T11:37:37;13.43;;;5.27;;
5363;SDS011;2705;41.410;2.160;2023-01-26T11:40:11;4.57;;;3.40;;
5363;SDS011;2705;41.410;2.160;2023-01-26T11:42:43;5.20;;;3.60;;
5363;SDS011;2705;41.410;2.160;2023-01-26T11:45:19;5.70;;;4.40;;
5363;SDS011;2705;41.410;2.160;2023-01-26T11:47:53;5.80;;;3.87;;
5363;SDS011;2705;41.410;2.160;2023-01-26T11:50:29;7.80;;;4.47;;
5363;SDS011;2705;41.410;2.160;2023-01-26T11:53:08;5.03;;;3.90;;
5363;SDS011;2705;41.410;2.160;2023-01-26T11:55:45;6.43;;;4.23;;
5363;SDS011;2705;41.410;2.160;2023-01-26T11:58:21;6.83;;;4.60;;
5363;SDS011;2705;41.410;2.160;2023-01-26T12:00:54;5.50;;;4.47;;
5363;SDS011;2705;41.410;2.160;2023-01-26T12:03:25;6.67;;;4.90;;
5363;SDS011;2705;41.410;2.160;2023-01-26T12:06:00;7.10;;;5.13;;
5363;SDS011;2705;41.410;2.160;2023-01-26T12:08:32;12.63;;;5.13;;
5363;SDS011;2705;41.410;2.160;2023-01-26T12:11:07;6.47;;;4.80;;
5363;SDS011;2705;41.410;2.160;2023-01-26T12:14:00;5.67;;;3.80;;
5363;SDS011;2705;41.410;2.160;2023-01-26T12:16:34;8.97;;;4.57;;
5363;SDS011;2705;41.410;2.160;2023-01-26T12:19:08;6.40;;;5.10;;
5363;SDS011;2705;41.410;2.160;2023-01-26T12:21:42;9.20;;;5.37;;
5363;SDS011;2705;41.410;2.160;2023-01-26T12:24:14;7.63;;;4.97;;
5363;SDS011;2705;41.410;2.160;2023-01-26T12:27:09;6.90;;;4.20;;
5363;SDS011;2705;41.410;2.160;2023-01-26T12:29:42;5.73;;;4.17;;
5363;SDS011;2705;41.410;2.160;2023-01-26T12:32:14;5.93;;;4.30;;
5363;SDS011;2705;41.410;2.160;2023-01-26T12:34:43;6.47;;;4.80;;
5363;SDS011;2705;41.410;2.160;2023-01-26T12:37:27;10.23;;;4.83;;
5363;SDS011;2705;41.410;2.160;2023-01-26T12:40:00;6.83;;;5.10;;
5363;SDS011;2705;41.410;2.160;2023-01-26T12:42:38;12.23;;;7.87;;
5363;SDS011;2705;41.410;2.160;2023-01-26T12:45:11;27.20;;;15.63;;
5363;SDS011;2705;41.410;2.160;2023-01-26T12:47:45;9.63;;;6.10;;
5363;SDS011;2705;41.410;2.160;2023-01-26T12:50:20;11.70;;;8.70;;
5363;SDS011;2705;41.410;2.160;2023-01-26T12:52:53;12.23;;;7.53;;
5363;SDS011;2705;41.410;2.160;2023-01-26T12:55:24;11.10;;;7.70;;
5363;SDS011;2705;41.410;2.160;2023-01-26T12:57:55;12.43;;;7.03;;
5363;SDS011;2705;41.410;2.160;2023-01-26T13:00:27;11.97;;;7.67;;
5363;SDS011;2705;41.410;2.160;2023-01-26T13:02:58;11.87;;;7.57;;
5363;SDS011;2705;41.410;2.160;2023-01-26T13:05:30;15.33;;;8.70;;
5363;SDS011;2705;41.410;2.160;2023-01-26T13:10:47;14.60;;;8.83;;
5363;SDS011;2705;41.410;2.160;2023-01-26T13:13:28;10.67;;;7.33;;
5363;SDS011;2705;41.410;2.160;2023-01-26T13:18:48;16.13;;;9.90;;
5363;SDS011;2705;41.410;2.160;2023-01-26T13:21:24;11.77;;;8.40;;
5363;SDS011;2705;41.410;2.160;2023-01-26T13:23:54;14.83;;;8.97;;
5363;SDS011;2705;41.410;2.160;2023-01-26T13:26:40;27.50;;;8.47;;
5363;SDS011;2705;41.410;2.160;2023-01-26T13:29:26;13.80;;;8.23;;
5363;SDS011;2705;41.410;2.160;2023-01-26T13:31:58;19.83;;;10.87;;
5363;SDS011;2705;41.410;2.160;2023-01-26T13:34:28;18.00;;;8.77;;
5363;SDS011;2705;41.410;2.160;2023-01-26T13:37:02;21.07;;;8.00;;
5363;SDS011;2705;41.410;2.160;2023-01-26T13:39:33;13.73;;;8.13;;
5363;SDS011;2705;41.410;2.160;2023-01-26T13:42:10;13.57;;;8.23;;
5363;SDS011;2705;41.410;2.160;2023-01-26T13:44:43;13.33;;;8.63;;
5363;SDS011;2705;41.410;2.160;2023-01-26T13:47:14;14.80;;;8.53;;
5363;SDS011;2705;41.410;2.160;2023-01-26T13:49:47;13.10;;;7.60;;
5363;SDS011;2705;41.410;2.160;2023-01-26T13:52:17;21.60;;;9.97;;
5363;SDS011;2705;41.410;2.160;2023-01-26T13:54:49;13.97;;;8.37;;
5363;SDS011;2705;41.410;2.160;2023-01-26T13:57:21;15.53;;;9.83;;
5363;SDS011;2705;41.410;2.160;2023-01-26T13:59:52;17.60;;;9.53;;
5363;SDS011;2705;41.410;2.160;2023-01-26T14:02:23;19.87;;;9.17;;
5363;SDS011;2705;41.410;2.160;2023-01-26T14:04:53;16.03;;;9.10;;
5363;SDS011;2705;41.410;2.160;2023-01-26T14:07:25;14.53;;;8.57;;
5363;SDS011;2705;41.410;2.160;2023-01-26T14:09:55;15.60;;;9.07;;
5363;SDS011;2705;41.410;2.160;2023-01-26T14:12:41;16.07;;;9.57;;
5363;SDS011;2705;41.410;2.160;2023-01-26T14:15:18;19.50;;;9.10;;
5363;SDS011;2705;41.410;2.160;2023-01-26T14:17:51;15.00;;;9.17;;
5363;SDS011;2705;41.410;2.160;2023-01-26T14:20:23;13.83;;;8.53;;
5363;SDS011;2705;41.410;2.160;2023-01-26T14:23:10;14.40;;;9.30;;
5363;SDS011;2705;41.410;2.160;2023-01-26T14:25:40;13.33;;;8.10;;
5363;SDS011;2705;41.410;2.160;2023-01-26T14:28:13;18.00;;;9.87;;
5363;SDS011;2705;41.410;2.160;2023-01-26T14:30:43;20.20;;;9.23;;
5363;SDS011;2705;41.410;2.160;2023-01-26T14:33:18;15.73;;;8.70;;
5363;SDS011;2705;41.410;2.160;2023-01-26T14:35:54;22.47;;;10.53;;
5363;SDS011;2705;41.410;2.160;2023-01-26T14:38:24;16.10;;;9.80;;
5363;SDS011;2705;41.410;2.160;2023-01-26T14:40:55;36.83;;;17.67;;
5363;SDS011;2705;41.410;2.160;2023-01-26T14:43:26;19.10;;;9.87;;
5363;SDS011;2705;41.410;2.160;2023-01-26T14:45:57;15.43;;;10.80;;
5363;SDS011;2705;41.410;2.160;2023-01-26T14:48:28;20.33;;;11.03;;
5363;SDS011;2705;41.410;2.160;2023-01-26T14:50:59;18.20;;;9.67;;
5363;SDS011;2705;41.410;2.160;2023-01-26T14:53:31;13.60;;;8.70;;
5363;SDS011;2705;41.410;2.160;2023-01-26T14:56:00;19.37;;;11.07;;
5363;SDS011;2705;41.410;2.160;2023-01-26T14:58:31;18.90;;;10.33;;
5363;SDS011;2705;41.410;2.160;2023-01-26T15:01:01;18.80;;;10.50;;
5363;SDS011;2705;41.410;2.160;2023-01-26T15:03:31;17.33;;;9.77;;
5363;SDS011;2705;41.410;2.160;2023-01-26T15:06:03;21.20;;;10.27;;
5363;SDS011;2705;41.410;2.160;2023-01-26T15:08:33;16.23;;;9.00;;
5363;SDS011;2705;41.410;2.160;2023-01-26T15:11:03;22.97;;;10.10;;
5363;SDS011;2705;41.410;2.160;2023-01-26T15:13:52;17.50;;;10.13;;
5363;SDS011;2705;41.410;2.160;2023-01-26T15:16:23;17.57;;;10.40;;
5363;SDS011;2705;41.410;2.160;2023-01-26T15:18:59;14.90;;;9.80;;
5363;SDS011;2705;41.410;2.160;2023-01-26T15:21:30;17.90;;;9.67;;
5363;SDS011;2705;41.410;2.160;2023-01-26T15:24:01;15.90;;;9.83;;
5363;SDS011;2705;41.410;2.160;2023-01-26T15:26:32;13.10;;;9.07;;
5363;SDS011;2705;41.410;2.160;2023-01-26T15:29:03;12.43;;;8.77;;
5363;SDS011;2705;41.410;2.160;2023-01-26T15:31:34;22.33;;;9.90;;
5363;SDS011;2705;41.410;2.160;2023-01-26T15:34:05;15.50;;;10.13;;
5363;SDS011;2705;41.410;2.160;2023-01-26T15:36:45;14.13;;;9.07;;
5363;SDS011;2705;41.410;2.160;2023-01-26T15:39:15;17.80;;;9.90;;
5363;SDS011;2705;41.410;2.160;2023-01-26T15:41:46;21.33;;;9.80;;
5363;SDS011;2705;41.410;2.160;2023-01-26T15:44:29;15.50;;;9.90;;
5363;SDS011;2705;41.410;2.160;2023-01-26T15:46:58;16.63;;;9.60;;
5363;SDS011;2705;41.410;2.160;2023-01-26T15:49:27;18.47;;;9.70;;
5363;SDS011;2705;41.410;2.160;2023-01-26T15:51:57;15.93;;;10.40;;
5363;SDS011;2705;41.410;2.160;2023-01-26T15:54:26;14.77;;;8.80;;